RJNH(METAR)
10/23 17:00
METAR RJNH 230800Z 30011KT 9999 FEW020 17/01 Q1019 RMK 1CU020 A3012=
戻る
トップページへ戻る
IMOC Co,.Ltd.